Clogher, United Kingdom
Current Conditions -  °F | °C
As of 9:20 PM on Wednesday 26 Nov 2014 (Local Time) from EGAA Reporting Station
Light Fog Light Fog  
Wind Chill: 39°   Ceiling: 2700
Heat Index: 39°   Visibility: 0.93mi
Dew Point: 39°   Wind: 2mph
Humidity: 100%   Direction: 220°SW
Pressure: 29.8"   Gusts: NA
Location:  54.41°N, 7.17°W
Report Text: EGAA 262120Z 22002KT 1500 R25/P1500 R07/0325 BCFG BKN027 04/04 Q1009
Loading
Personal Weather Stations






























Interactive Weather Map New forecast layout! Learn more

10-Day Weather Forecast

Advertisements
Track Severe Weather on mobile